Time;durP1;ratioP1;P1;durP2;ratioP2;P2;SDS_P1;SDS_P2;PMS_P1;PMS_P2;Temp;Humidity;BMP_temperature;BMP_pressure;BME280_temperature;BME280_humidity;BME280_pressure;Samples;Min_cycle;Max_cycle;Signal;HPM_P1;HPM_P2
2021/07/08 00:00:28;;;;;;;7.83;7.13;;;;;;;15.72;100.00;98342.38;5002020;28;20562;-74
2021/07/08 00:02:56;;;;;;;8.53;7.60;;;;;;;15.73;100.00;98349.41;5001923;28;20573;-73
2021/07/08 00:05:26;;;;;;;8.70;8.00;;;;;;;15.71;100.00;98344.25;4998625;28;20221;-73
2021/07/08 00:07:56;;;;;;;7.93;7.13;;;;;;;15.70;100.00;98344.41;4999746;28;20229;-73
2021/07/08 00:10:29;;;;;;;8.20;7.60;;;;;;;15.72;100.00;98339.72;4999899;28;20820;-73
2021/07/08 00:12:59;;;;;;;9.20;7.50;;;;;;;15.69;100.00;98338.28;5000476;28;20593;-72
2021/07/08 00:15:28;;;;;;;8.57;7.67;;;;;;;15.70;100.00;98331.91;5000430;28;20228;-72
2021/07/08 00:17:56;;;;;;;8.50;7.73;;;;;;;15.72;100.00;98327.19;4997930;28;20201;-72
2021/07/08 00:20:27;;;;;;;7.70;7.10;;;;;;;15.84;100.00;98329.38;5001464;28;20643;-73
2021/07/08 00:22:55;;;;;;;7.90;7.40;;;;;;;15.89;100.00;98321.63;5000716;28;20205;-72
2021/07/08 00:25:25;;;;;;;8.53;7.83;;;;;;;15.80;100.00;98320.91;5002185;28;20232;-72
2021/07/08 00:27:53;;;;;;;7.70;7.20;;;;;;;15.75;100.00;98329.50;4998429;28;20267;-74
2021/07/08 00:30:23;;;;;;;7.80;7.20;;;;;;;15.80;100.00;98326.25;5003182;28;20693;-73
2021/07/08 00:32:52;;;;;;;7.53;6.93;;;;;;;15.75;100.00;98312.66;5000735;28;20220;-74
2021/07/08 00:35:22;;;;;;;7.57;7.07;;;;;;;15.73;100.00;98323.50;4998289;28;20747;-72
2021/07/08 00:37:51;;;;;;;7.17;6.60;;;;;;;15.74;100.00;98319.00;5000341;28;20220;-72
2021/07/08 00:40:20;;;;;;;7.27;6.67;;;;;;;15.73;100.00;98312.00;5001852;28;20797;-72
2021/07/08 00:42:48;;;;;;;7.20;6.77;;;;;;;15.80;100.00;98315.56;5001095;28;20205;-73
2021/07/08 00:45:19;;;;;;;7.50;6.93;;;;;;;15.73;100.00;98322.69;4999379;28;20482;-72
2021/07/08 00:47:49;;;;;;;7.77;7.03;;;;;;;15.67;100.00;98315.41;5000031;28;20236;-72
2021/07/08 00:50:18;;;;;;;6.83;6.33;;;;;;;15.66;100.00;98311.09;5002555;28;20212;-72
2021/07/08 00:52:46;;;;;;;7.83;7.23;;;;;;;15.66;100.00;98311.94;4999757;28;20224;-72
2021/07/08 00:55:15;;;;;;;7.03;6.40;;;;;;;15.64;100.00;98316.63;4999538;28;20224;-73
2021/07/08 00:57:52;;;;;;;7.27;6.77;;;;;;;15.64;100.00;98311.28;4998974;28;20518;-72
2021/07/08 01:00:21;;;;;;;7.80;7.10;;;;;;;15.60;100.00;98302.81;4997633;28;20205;-72
2021/07/08 01:02:51;;;;;;;7.73;7.13;;;;;;;15.56;100.00;98306.88;4999720;28;20209;-72
2021/07/08 01:05:21;;;;;;;7.37;6.73;;;;;;;15.55;100.00;98315.09;4999542;28;20586;-72
2021/07/08 01:07:50;;;;;;;8.40;7.27;;;;;;;15.54;100.00;98313.44;4998502;28;20718;-72
2021/07/08 01:10:18;;;;;;;8.03;7.33;;;;;;;15.48;100.00;98312.34;5000612;28;20648;-72
2021/07/08 01:12:46;;;;;;;8.37;7.77;;;;;;;15.47;100.00;98308.84;5006226;28;20213;-73
2021/07/08 01:15:29;;;;;;;8.27;7.70;;;;;;;15.41;100.00;98314.94;4961320;28;20230;-73
2021/07/08 01:17:58;;;;;;;8.43;7.60;;;;;;;15.41;100.00;98319.47;4963658;28;20206;-72
2021/07/08 01:20:28;;;;;;;8.27;7.77;;;;;;;15.40;100.00;98326.63;4964752;28;20294;-72
2021/07/08 01:22:58;;;;;;;8.60;7.77;;;;;;;15.39;100.00;98310.81;4963351;28;20210;-73
2021/07/08 01:25:28;;;;;;;7.50;7.00;;;;;;;15.62;100.00;98306.13;4960294;28;20698;-71
2021/07/08 01:27:57;;;;;;;8.10;7.20;;;;;;;15.80;100.00;98307.56;4963729;28;20210;-73
2021/07/08 01:30:25;;;;;;;7.63;7.13;;;;;;;15.81;100.00;98293.19;4964257;28;20202;-72
2021/07/08 01:32:53;;;;;;;7.10;6.60;;;;;;;15.84;100.00;98305.31;4964269;28;20377;-73
2021/07/08 01:35:23;;;;;;;6.77;6.27;;;;;;;15.82;100.00;98297.50;4962020;28;20226;-71
2021/07/08 01:37:51;;;;;;;7.87;7.13;;;;;;;15.78;100.00;98294.38;4962407;28;20206;-72
2021/07/08 01:40:21;;;;;;;7.93;7.23;;;;;;;15.68;100.00;98293.88;4964534;28;20706;-73
2021/07/08 01:42:49;;;;;;;8.00;7.10;;;;;;;15.66;100.00;98303.06;4964136;28;20218;-73
2021/07/08 01:45:18;;;;;;;7.20;6.60;;;;;;;15.69;100.00;98297.34;4960740;28;20671;-72
2021/07/08 01:47:47;;;;;;;7.93;7.13;;;;;;;15.81;100.00;98298.53;5000400;28;20220;-72
2021/07/08 01:50:18;;;;;;;8.67;7.90;;;;;;;15.64;100.00;98303.28;5003219;28;20233;-72
2021/07/08 01:52:47;;;;;;;9.63;8.30;;;;;;;15.70;100.00;98302.53;4997307;28;20209;-73
2021/07/08 01:55:17;;;;;;;8.70;7.90;;;;;;;15.72;100.00;98284.47;5005807;28;20495;-72
2021/07/08 01:57:51;;;;;;;9.67;8.60;;;;;;;15.82;100.00;98281.47;4996967;28;20577;-72
2021/07/08 02:00:21;;;;;;;8.30;7.63;;;;;;;15.75;100.00;98284.06;5005612;28;20263;-73
2021/07/08 02:02:49;;;;;;;9.90;9.13;;;;;;;15.69;100.00;98300.88;5002188;28;20667;-73
2021/07/08 02:05:18;;;;;;;10.90;8.80;;;;;;;15.76;100.00;98307.09;5000404;28;20236;-72
2021/07/08 02:07:46;;;;;;;9.77;8.97;;;;;;;15.63;100.00;98326.47;4996090;28;20217;-74
2021/07/08 02:10:16;;;;;;;10.20;9.40;;;;;;;15.55;100.00;98331.94;5001136;28;20224;-73
2021/07/08 02:12:46;;;;;;;9.53;8.73;;;;;;;15.53;100.00;98328.63;4994207;28;20216;-73
2021/07/08 02:15:15;;;;;;;9.57;8.67;;;;;;;15.62;100.00;98316.00;4990885;28;20332;-73
2021/07/08 02:17:43;;;;;;;9.90;9.00;;;;;;;15.80;100.00;98307.56;5003874;28;20232;-72
2021/07/08 02:20:14;;;;;;;10.33;9.30;;;;;;;15.69;100.00;98294.69;4996475;28;20213;-74
2021/07/08 02:22:43;;;;;;;10.20;9.40;;;;;;;15.70;100.00;98301.69;4996562;28;20220;-74
2021/07/08 02:25:11;;;;;;;12.33;9.67;;;;;;;15.71;100.00;98293.50;5000884;28;20241;-72
2021/07/08 02:27:40;;;;;;;10.03;9.23;;;;;;;15.73;100.00;98304.00;5000187;28;20236;-74
2021/07/08 02:30:11;;;;;;;12.83;9.13;;;;;;;15.65;100.00;98309.44;4997854;28;20229;-74
2021/07/08 02:32:40;;;;;;;10.53;9.50;;;;;;;15.67;100.00;98307.41;5005959;28;20592;-73
2021/07/08 02:35:10;;;;;;;9.73;8.47;;;;;;;15.69;100.00;98305.38;5002011;28;20229;-72
2021/07/08 02:37:39;;;;;;;9.53;8.70;;;;;;;15.80;100.00;98312.91;5002092;28;20216;-74
2021/07/08 02:40:10;;;;;;;10.60;9.70;;;;;;;15.74;100.00;98317.16;4993000;28;20201;-72
2021/07/08 02:42:38;;;;;;;9.33;8.57;;;;;;;15.57;100.00;98307.72;4997598;28;20217;-72
2021/07/08 02:45:07;;;;;;;10.13;9.43;;;;;;;15.53;100.00;98309.94;4995545;28;20224;-72
2021/07/08 02:47:37;;;;;;;10.40;9.40;;;;;;;15.56;100.00;98311.41;5001774;28;20209;-73
2021/07/08 02:50:07;;;;;;;9.80;8.93;;;;;;;15.62;100.00;98300.78;4998545;28;20237;-74
2021/07/08 02:52:35;;;;;;;10.70;9.60;;;;;;;15.67;100.00;98292.22;5003074;28;20227;-73
2021/07/08 02:55:03;;;;;;;10.67;9.67;;;;;;;15.63;100.00;98278.41;5002858;28;20216;-73
2021/07/08 02:57:31;;;;;;;9.73;8.90;;;;;;;15.61;100.00;98277.75;5001965;28;20400;-72
2021/07/08 02:59:59;;;;;;;8.93;8.23;;;;;;;15.70;100.00;98278.47;5003199;28;20216;-72
2021/07/08 03:02:27;;;;;;;10.07;9.20;;;;;;;15.75;100.00;98269.91;5005080;28;20209;-72
2021/07/08 03:04:57;;;;;;;9.50;8.57;;;;;;;15.87;100.00;98264.84;5002245;28;20216;-71
2021/07/08 03:07:25;;;;;;;9.13;8.33;;;;;;;15.90;100.00;98269.84;5002593;28;20217;-73
2021/07/08 03:09:53;;;;;;;8.93;8.13;;;;;;;15.74;100.00;98270.91;5001997;28;20237;-71
2021/07/08 03:12:21;;;;;;;9.40;8.57;;;;;;;15.57;100.00;98289.03;5001652;28;20626;-72
2021/07/08 03:14:49;;;;;;;9.27;8.17;;;;;;;15.52;100.00;98289.59;5000062;28;20232;-70
2021/07/08 03:17:17;;;;;;;9.37;8.67;;;;;;;15.51;100.00;98282.59;5003686;28;20593;-72
2021/07/08 03:19:45;;;;;;;9.87;8.93;;;;;;;15.62;100.00;98279.41;5005203;28;20255;-72
2021/07/08 03:22:14;;;;;;;8.83;8.30;;;;;;;15.64;100.00;98268.56;5002059;28;20212;-71
2021/07/08 03:24:43;;;;;;;8.60;7.97;;;;;;;15.62;100.00;98284.75;5003560;28;20456;-70
2021/07/08 03:27:11;;;;;;;8.93;8.10;;;;;;;15.59;100.00;98273.66;5003741;28;20231;-70
2021/07/08 03:29:39;;;;;;;8.43;7.67;;;;;;;15.54;100.00;98282.22;5002648;28;20589;-71
2021/07/08 03:32:07;;;;;;;9.10;8.43;;;;;;;15.61;100.00;98283.09;5000585;28;20209;-72
2021/07/08 03:34:36;;;;;;;8.23;7.63;;;;;;;15.55;100.00;98289.22;5004271;28;20204;-70
2021/07/08 03:37:04;;;;;;;8.10;7.50;;;;;;;15.49;100.00;98279.28;5002570;28;20257;-72
2021/07/08 03:39:33;;;;;;;8.53;7.83;;;;;;;15.42;100.00;98273.06;5004735;28;20204;-72
2021/07/08 03:42:01;;;;;;;8.53;8.03;;;;;;;15.43;100.00;98286.19;5001047;28;20216;-73
2021/07/08 03:44:29;;;;;;;9.10;8.13;;;;;;;15.43;100.00;98290.72;5001405;28;20289;-71
2021/07/08 03:46:57;;;;;;;8.63;7.87;;;;;;;15.36;100.00;98295.16;5001462;28;20252;-71
2021/07/08 03:49:25;;;;;;;9.23;8.53;;;;;;;15.33;100.00;98302.50;5000930;28;20225;-73
2021/07/08 03:51:53;;;;;;;9.03;8.30;;;;;;;15.34;100.00;98298.00;5004284;28;20211;-72
2021/07/08 03:54:21;;;;;;;9.10;8.30;;;;;;;15.34;100.00;98295.34;5001857;28;20392;-72
2021/07/08 03:56:50;;;;;;;9.17;8.47;;;;;;;15.33;100.00;98299.84;5004469;28;20244;-72
2021/07/08 03:59:18;;;;;;;9.33;8.57;;;;;;;15.38;100.00;98298.47;5002588;28;20236;-73
2021/07/08 04:01:46;;;;;;;9.40;8.63;;;;;;;15.39;100.00;98297.47;5004737;28;20219;-71
2021/07/08 04:04:16;;;;;;;8.60;7.90;;;;;;;15.40;100.00;98291.91;5002517;28;20213;-73
2021/07/08 04:06:44;;;;;;;8.87;8.00;;;;;;;15.36;100.00;98284.50;5002598;28;20221;-72
2021/07/08 04:09:12;;;;;;;9.23;8.43;;;;;;;15.39;100.00;98287.59;4996907;28;20209;-72
2021/07/08 04:11:40;;;;;;;8.83;7.93;;;;;;;15.58;100.00;98288.81;5001370;28;20223;-71
2021/07/08 04:14:09;;;;;;;7.87;7.27;;;;;;;15.53;100.00;98301.09;5003141;28;20224;-72
2021/07/08 04:16:37;;;;;;;9.87;8.67;;;;;;;15.43;100.00;98299.56;5003194;28;20221;-72
2021/07/08 04:19:05;;;;;;;9.37;8.13;;;;;;;15.54;100.00;98297.44;5003894;28;20209;-73
2021/07/08 04:21:33;;;;;;;8.30;7.60;;;;;;;15.71;100.00;98300.66;4990303;28;20213;-72
2021/07/08 04:24:01;;;;;;;7.57;6.97;;;;;;;15.65;100.00;98304.09;4991173;28;20209;-71
2021/07/08 04:26:29;;;;;;;7.87;7.37;;;;;;;15.64;100.00;98295.28;4995499;28;20253;-72
2021/07/08 04:28:57;;;;;;;8.27;7.47;;;;;;;15.67;100.00;98296.72;4994976;28;20567;-71
2021/07/08 04:31:27;;;;;;;9.43;8.63;;;;;;;15.53;100.00;98296.59;5004819;28;20225;-71
2021/07/08 04:33:55;;;;;;;8.37;7.73;;;;;;;15.56;100.00;98298.88;5000454;28;20543;-73
2021/07/08 04:36:23;;;;;;;9.53;7.83;;;;;;;15.57;100.00;98311.22;4997484;28;20229;-71
2021/07/08 04:38:53;;;;;;;14.30;8.57;;;;;;;15.46;100.00;98315.19;5000077;28;20209;-73
2021/07/08 04:41:21;;;;;;;8.77;7.97;;;;;;;15.46;100.00;98309.03;5000055;28;20630;-71
2021/07/08 04:43:49;;;;;;;8.50;7.90;;;;;;;15.57;100.00;98313.06;5000527;28;20216;-68
2021/07/08 04:46:17;;;;;;;9.07;8.40;;;;;;;15.60;100.00;98324.19;5002779;28;20229;-71
2021/07/08 04:48:46;;;;;;;9.23;8.40;;;;;;;15.56;100.00;98314.09;4995025;28;20209;-72
2021/07/08 04:51:15;;;;;;;8.07;7.57;;;;;;;15.65;100.00;98314.78;5000639;28;20220;-72
2021/07/08 04:53:44;;;;;;;9.10;8.27;;;;;;;15.48;100.00;98313.16;4997011;28;20328;-72
2021/07/08 04:56:11;;;;;;;8.67;8.07;;;;;;;15.41;100.00;98324.81;4999110;28;20320;-69
2021/07/08 04:58:39;;;;;;;8.10;7.33;;;;;;;15.41;100.00;98324.81;5001095;28;20681;-73
2021/07/08 05:01:07;;;;;;;8.37;7.57;;;;;;;15.40;100.00;98320.47;4999709;28;20201;-72
2021/07/08 05:03:36;;;;;;;8.63;8.03;;;;;;;15.40;100.00;98305.28;4997574;28;20324;-71
2021/07/08 05:06:05;;;;;;;8.67;8.07;;;;;;;15.60;100.00;98310.84;5000539;28;20236;-71
2021/07/08 05:08:33;;;;;;;8.60;7.80;;;;;;;15.52;100.00;98318.13;4999316;28;20586;-69
2021/07/08 05:11:01;;;;;;;11.53;8.47;;;;;;;15.57;100.00;98324.56;4998161;28;20230;-71
2021/07/08 05:13:29;;;;;;;12.00;9.20;;;;;;;15.65;100.00;98323.63;4997840;28;20205;-69
2021/07/08 05:15:57;;;;;;;9.37;8.47;;;;;;;15.65;100.00;98326.31;4997597;28;20271;-72
2021/07/08 05:18:25;;;;;;;9.33;8.60;;;;;;;15.66;100.00;98332.47;4997719;28;20283;-72
2021/07/08 05:20:53;;;;;;;11.07;10.00;;;;;;;15.68;100.00;98319.75;5000485;28;20209;-70
2021/07/08 05:23:25;;;;;;;10.67;9.77;;;;;;;15.68;100.00;98317.91;4999176;28;20612;-73
2021/07/08 05:25:54;;;;;;;9.70;9.00;;;;;;;15.83;100.00;98307.19;4998740;28;20490;-71
2021/07/08 05:28:22;;;;;;;9.47;8.67;;;;;;;15.87;100.00;98308.44;4998778;28;20205;-72
2021/07/08 05:30:49;;;;;;;10.00;9.30;;;;;;;15.80;100.00;98310.22;5000155;28;20233;-72
2021/07/08 05:33:17;;;;;;;10.00;9.13;;;;;;;15.70;100.00;98317.72;4999498;28;20208;-70
2021/07/08 05:35:45;;;;;;;10.00;9.03;;;;;;;15.76;100.00;98316.97;5009768;28;20596;-75
2021/07/08 05:38:13;;;;;;;9.33;8.43;;;;;;;15.74;100.00;98311.00;5014671;28;20212;-75
2021/07/08 05:40:43;;;;;;;7.93;7.40;;;;;;;15.76;100.00;98315.13;5001386;28;20212;-72
2021/07/08 05:43:11;;;;;;;8.70;8.10;;;;;;;15.74;100.00;98319.00;4999170;28;20201;-70
2021/07/08 05:45:39;;;;;;;9.33;8.50;;;;;;;15.74;100.00;98332.38;4996871;28;20699;-72
2021/07/08 05:48:07;;;;;;;8.80;8.00;;;;;;;15.69;100.00;98340.94;4998408;28;20213;-72
2021/07/08 05:50:35;;;;;;;8.80;8.00;;;;;;;15.71;100.00;98338.91;4999954;28;20264;-72
2021/07/08 05:53:03;;;;;;;8.87;8.27;;;;;;;15.71;100.00;98344.25;5000888;28;20213;-73
2021/07/08 05:55:31;;;;;;;8.20;7.50;;;;;;;15.80;100.00;98338.78;5000422;28;20220;-71
2021/07/08 05:58:01;;;;;;;9.00;8.20;;;;;;;15.76;100.00;98343.69;4999017;28;20243;-73
2021/07/08 06:00:29;;;;;;;8.47;7.77;;;;;;;15.80;100.00;98339.63;4998927;28;20212;-71
2021/07/08 06:02:57;;;;;;;8.97;8.13;;;;;;;15.76;100.00;98344.50;5000354;28;20478;-72
2021/07/08 06:05:28;;;;;;;8.87;8.03;;;;;;;15.82;100.00;98356.28;5001610;28;20229;-71
2021/07/08 06:07:56;;;;;;;8.10;7.40;;;;;;;15.74;100.00;98367.09;5000867;28;20677;-72
2021/07/08 06:10:23;;;;;;;8.97;8.27;;;;;;;15.67;100.00;98368.84;4999947;28;20209;-73
2021/07/08 06:12:54;;;;;;;7.90;7.40;;;;;;;15.56;100.00;98388.88;5004667;28;20340;-74
2021/07/08 06:15:24;;;;;;;12.00;8.23;;;;;;;15.55;100.00;98400.56;5000962;28;20236;-73
2021/07/08 06:17:52;;;;;;;9.50;8.07;;;;;;;15.60;100.00;98407.00;5004039;28;20385;-74
2021/07/08 06:20:20;;;;;;;8.77;7.97;;;;;;;15.71;100.00;98392.34;5000868;28;20232;-74
2021/07/08 06:22:48;;;;;;;9.03;8.30;;;;;;;15.81;100.00;98369.84;5002220;28;20205;-72
2021/07/08 06:25:17;;;;;;;7.57;6.97;;;;;;;15.87;100.00;98371.75;4997682;28;20228;-71
2021/07/08 06:27:45;;;;;;;8.43;7.83;;;;;;;15.76;100.00;98365.06;4992376;28;20210;-72
2021/07/08 06:30:14;;;;;;;8.07;7.40;;;;;;;15.91;100.00;98352.50;4991816;28;20567;-72
2021/07/08 06:32:43;;;;;;;7.90;7.30;;;;;;;15.89;100.00;98335.84;4996764;28;20224;-73
2021/07/08 06:35:17;;;;;;;9.67;8.90;;;;;;;15.94;100.00;98334.44;4994536;28;20240;-70
2021/07/08 06:37:45;;;;;;;10.20;9.37;;;;;;;15.96;100.00;98325.22;4995382;28;20205;-73
2021/07/08 06:40:17;;;;;;;10.80;9.93;;;;;;;15.99;100.00;98321.31;5001286;28;20252;-73
2021/07/08 06:42:45;;;;;;;9.73;8.80;;;;;;;16.11;100.00;98314.47;4999657;28;20210;-70
2021/07/08 06:45:15;;;;;;;10.80;8.57;;;;;;;16.05;100.00;98297.34;5002252;28;20311;-73
2021/07/08 06:47:46;;;;;;;9.07;8.30;;;;;;;16.17;100.00;98308.34;5000829;28;20205;-75
2021/07/08 06:50:16;;;;;;;7.27;6.77;;;;;;;16.25;100.00;98327.94;5000515;28;20291;-72
2021/07/08 06:52:44;;;;;;;6.57;5.97;;;;;;;16.23;100.00;98335.34;4995903;28;20244;-79
2021/07/08 06:55:13;;;;;;;6.63;5.73;;;;;;;16.29;100.00;98342.59;4997569;28;20247;-80
2021/07/08 06:57:50;;;;;;;6.90;6.10;;;;;;;16.40;100.00;98355.44;4993973;28;20208;-79
2021/07/08 07:00:20;;;;;;;5.67;4.80;;;;;;;16.39;100.00;98353.78;5001576;28;20288;-81
2021/07/08 07:02:49;;;;;;;4.80;4.50;;;;;;;16.65;100.00;98344.31;5000103;28;20479;-79
2021/07/08 07:05:18;;;;;;;3.93;3.70;;;;;;;16.51;100.00;98340.69;4996420;28;20307;-78
2021/07/08 07:07:46;;;;;;;3.70;3.40;;;;;;;16.56;100.00;98356.19;4996286;28;20239;-79
2021/07/08 07:10:15;;;;;;;3.70;3.50;;;;;;;16.29;100.00;98369.31;4999775;28;20212;-78
2021/07/08 07:12:44;;;;;;;4.73;4.13;;;;;;;16.08;100.00;98372.81;5001830;28;20228;-76
2021/07/08 07:15:13;;;;;;;4.57;4.10;;;;;;;15.97;100.00;98376.81;4998517;28;20225;-77
2021/07/08 07:17:41;;;;;;;3.70;3.50;;;;;;;16.08;100.00;98381.66;4998897;28;20193;-74
2021/07/08 07:20:12;;;;;;;3.17;2.97;;;;;;;15.96;100.00;98385.84;4999744;28;20303;-73
2021/07/08 07:22:44;;;;;;;3.43;3.33;;;;;;;15.83;100.00;98379.31;4993267;28;20197;-75
2021/07/08 07:25:14;;;;;;;4.20;3.83;;;;;;;15.85;100.00;98374.63;4992057;28;20313;-76
2021/07/08 07:27:42;;;;;;;4.30;4.00;;;;;;;15.87;100.00;98369.06;4992186;28;20205;-77
2021/07/08 07:30:11;;;;;;;4.13;3.53;;;;;;;15.90;100.00;98377.59;4997793;28;20209;-78
2021/07/08 07:32:39;;;;;;;3.90;3.50;;;;;;;15.87;100.00;98383.28;4999005;28;20235;-76
2021/07/08 07:35:08;;;;;;;3.90;3.60;;;;;;;15.87;100.00;98374.41;4998462;28;20232;-77
2021/07/08 07:37:37;;;;;;;3.10;3.00;;;;;;;15.87;100.00;98371.75;4997296;28;20216;-77
2021/07/08 07:40:06;;;;;;;3.87;3.57;;;;;;;15.94;100.00;98371.84;4998943;28;20220;-76
2021/07/08 07:42:35;;;;;;;3.37;3.17;;;;;;;16.02;100.00;98369.91;4999239;28;20209;-77
2021/07/08 07:45:05;;;;;;;3.80;3.60;;;;;;;15.87;100.00;98375.25;5000489;28;20541;-75
2021/07/08 07:47:33;;;;;;;3.83;3.50;;;;;;;16.02;100.00;98369.06;4997843;28;20504;-75
2021/07/08 07:50:02;;;;;;;3.90;3.70;;;;;;;16.08;100.00;98346.91;4999780;28;20201;-76
2021/07/08 07:52:30;;;;;;;3.80;3.60;;;;;;;16.13;100.00;98343.66;4998074;28;20235;-77
2021/07/08 07:54:59;;;;;;;3.87;3.50;;;;;;;16.25;100.00;98341.31;4998557;28;20206;-77
2021/07/08 07:57:27;;;;;;;4.23;4.03;;;;;;;16.22;100.00;98349.72;4999657;28;20231;-77
2021/07/08 07:59:55;;;;;;;5.50;4.57;;;;;;;16.28;100.00;98347.09;4999890;28;20217;-78
2021/07/08 08:02:23;;;;;;;4.43;4.23;;;;;;;16.41;100.00;98340.22;4995439;28;20228;-77
2021/07/08 08:04:57;;;;;;;4.73;4.43;;;;;;;16.51;100.00;98323.84;4998393;28;20216;-77
2021/07/08 08:10:12;;;;;;;4.50;4.10;;;;;;;16.60;100.00;98320.00;4997997;28;20211;-76
2021/07/08 08:12:40;;;;;;;5.23;4.63;;;;;;;16.68;100.00;98322.50;4993779;28;20756;-78
2021/07/08 08:15:14;;;;;;;4.17;3.97;;;;;;;16.81;100.00;98318.25;4999849;28;20411;-77
2021/07/08 08:17:42;;;;;;;3.90;3.70;;;;;;;17.04;100.00;98334.06;4997036;28;20201;-75
2021/07/08 08:20:14;;;;;;;4.13;3.93;;;;;;;17.19;100.00;98331.28;5000148;28;20201;-75
2021/07/08 08:22:42;;;;;;;3.80;3.60;;;;;;;17.48;100.00;98334.69;5000787;28;20692;-76
2021/07/08 08:25:13;;;;;;;4.70;4.30;;;;;;;17.46;100.00;98332.22;4997468;28;20229;-75
2021/07/08 08:27:41;;;;;;;4.40;4.00;;;;;;;17.65;100.00;98321.78;4998551;28;20853;-77
2021/07/08 08:30:12;;;;;;;4.23;3.83;;;;;;;17.58;100.00;98329.78;4998241;28;20209;-79
2021/07/08 08:32:40;;;;;;;5.47;4.43;;;;;;;17.75;100.00;98324.88;4999629;28;20685;-76
2021/07/08 08:35:09;;;;;;;3.60;3.40;;;;;;;18.13;100.00;98330.75;4997663;28;20201;-77
2021/07/08 08:37:37;;;;;;;4.23;3.50;;;;;;;17.97;100.00;98334.63;5000440;28;20247;-77
2021/07/08 08:40:06;;;;;;;3.40;3.20;;;;;;;18.08;100.00;98344.78;5000641;28;20669;-77
2021/07/08 08:42:36;;;;;;;2.97;2.67;;;;;;;18.25;100.00;98341.72;4999162;28;20204;-79
2021/07/08 08:45:07;;;;;;;3.67;2.90;;;;;;;18.08;100.00;98347.47;4997065;28;20625;-75
2021/07/08 08:47:52;;;;;;;3.07;2.70;;;;;;;18.12;100.00;98345.19;4997771;28;20238;-77
2021/07/08 08:50:20;;;;;;;2.77;2.67;;;;;;;18.07;100.00;98340.47;4997246;28;20744;-79
2021/07/08 08:52:48;;;;;;;3.17;2.97;;;;;;;18.31;100.00;98344.41;4998398;28;20236;-76
2021/07/08 08:55:17;;;;;;;3.13;2.67;;;;;;;18.19;100.00;98341.50;4995678;28;20225;-77
2021/07/08 08:57:46;;;;;;;3.20;3.00;;;;;;;18.22;100.00;98351.00;4995291;28;20240;-79
2021/07/08 09:00:39;;;;;;;3.37;2.97;;;;;;;18.13;100.00;98355.72;4997507;28;20608;-77
2021/07/08 09:03:08;;;;;;;2.57;2.37;;;;;;;18.02;100.00;98369.75;4997643;28;20204;-76
2021/07/08 09:05:38;;;;;;;3.17;2.97;;;;;;;18.03;100.00;98368.72;4997625;28;20251;-78
2021/07/08 09:08:15;;;;;;;2.87;2.57;;;;;;;18.00;100.00;98369.09;5002308;28;20216;-77
2021/07/08 09:10:44;;;;;;;3.00;2.80;;;;;;;18.08;100.00;98352.84;5016954;28;20211;-79
2021/07/08 09:13:14;;;;;;;2.80;2.70;;;;;;;18.30;100.00;98340.06;5005345;28;20232;-79
2021/07/08 09:15:42;;;;;;;2.80;2.60;;;;;;;18.44;100.00;98316.75;4995324;28;20225;-77
2021/07/08 09:18:13;;;;;;;2.60;2.50;;;;;;;18.06;100.00;98277.94;5000756;28;20653;-75
2021/07/08 09:20:41;;;;;;;3.13;2.93;;;;;;;17.94;100.00;98274.19;4995942;28;20589;-71
2021/07/08 09:23:15;;;;;;;3.70;3.00;;;;;;;18.47;100.00;98316.34;4998618;28;20204;-79
2021/07/08 09:25:44;;;;;;;3.27;3.07;;;;;;;19.04;100.00;98361.50;5000735;28;20255;-75
2021/07/08 09:28:20;;;;;;;3.13;2.90;;;;;;;19.23;100.00;98361.69;4997671;28;20212;-74
2021/07/08 09:31:01;;;;;;;2.90;2.70;;;;;;;19.12;100.00;98348.88;5002165;28;20668;-74
2021/07/08 09:33:35;;;;;;;3.07;2.87;;;;;;;19.07;100.00;98336.91;4998146;28;20225;-76
2021/07/08 09:36:11;;;;;;;3.07;2.87;;;;;;;19.70;100.00;98326.56;5005100;28;20232;-77
2021/07/08 09:38:41;;;;;;;3.10;3.00;;;;;;;19.57;100.00;98332.81;5002489;28;20258;-78
2021/07/08 09:41:12;;;;;;;3.10;2.90;;;;;;;19.66;100.00;98338.75;5000341;28;20216;-77
2021/07/08 09:43:41;;;;;;;3.30;3.10;;;;;;;19.45;100.00;98353.31;5003090;28;20209;-79
2021/07/08 09:46:11;;;;;;;2.67;2.47;;;;;;;19.43;100.00;98353.53;5003308;28;20220;-81
2021/07/08 09:48:40;;;;;;;2.37;2.27;;;;;;;19.62;100.00;98361.72;5007163;28;20231;-78
2021/07/08 09:51:09;;;;;;;2.47;2.10;;;;;;;19.81;100.00;98343.84;4997354;28;20209;-78
2021/07/08 09:53:51;;;;;;;2.43;2.33;;;;;;;20.08;100.00;98341.88;5004383;28;20616;-77
2021/07/08 09:56:43;;;;;;;2.40;2.30;;;;;;;20.49;100.00;98350.44;5000735;28;20256;-78
2021/07/08 09:59:13;;;;;;;1.80;1.80;;;;;;;21.06;91.81;98341.47;5001265;28;20223;-77
2021/07/08 10:01:42;;;;;;;2.50;2.40;;;;;;;20.88;98.84;98342.28;5002025;28;20205;-78
2021/07/08 10:04:10;;;;;;;2.27;2.10;;;;;;;20.93;98.32;98339.72;5000084;28;20220;-79
2021/07/08 10:06:39;;;;;;;2.40;2.30;;;;;;;21.34;94.66;98333.91;5003543;28;20236;-79
2021/07/08 10:09:07;;;;;;;1.93;1.83;;;;;;;21.22;93.08;98334.66;5003382;28;20209;-79
2021/07/08 10:11:35;;;;;;;2.00;1.90;;;;;;;21.00;91.31;98323.47;5000644;28;20296;-78
2021/07/08 10:14:04;;;;;;;2.30;2.20;;;;;;;21.35;87.47;98322.06;4996771;28;20747;-80
2021/07/08 10:16:34;;;;;;;2.00;1.90;;;;;;;21.48;92.49;98321.88;5003636;28;20323;-76
2021/07/08 10:19:04;;;;;;;2.20;2.10;;;;;;;21.81;91.15;98320.66;4999004;28;20241;-76
2021/07/08 10:21:32;;;;;;;2.43;2.33;;;;;;;21.70;86.38;98326.81;4994811;28;20204;-79
2021/07/08 10:24:02;;;;;;;1.83;1.73;;;;;;;21.29;87.70;98333.75;5003598;28;20206;-81
2021/07/08 10:26:30;;;;;;;3.93;2.00;;;;;;;21.45;87.34;98332.31;5004704;28;21275;-77
2021/07/08 10:29:00;;;;;;;2.37;2.27;;;;;;;21.17;85.04;98322.91;4995863;28;20210;-77
2021/07/08 10:31:28;;;;;;;2.10;2.00;;;;;;;21.14;82.12;98315.25;4998717;28;20206;-78
2021/07/08 10:34:08;;;;;;;1.80;1.80;;;;;;;20.99;86.62;98326.41;5000952;28;20720;-80
2021/07/08 10:36:41;;;;;;;1.90;1.90;;;;;;;21.06;85.13;98325.28;5002744;28;20712;-78
2021/07/08 10:39:11;;;;;;;2.10;2.00;;;;;;;21.15;85.23;98323.09;4996375;28;20212;-79
2021/07/08 10:41:45;;;;;;;2.30;2.10;;;;;;;21.30;82.82;98316.53;4996308;28;20206;-77
2021/07/08 10:44:42;;;;;;;2.00;1.90;;;;;;;21.92;77.40;98308.25;4996664;28;20728;-78
2021/07/08 10:47:33;;;;;;;2.13;2.03;;;;;;;21.96;82.23;98305.91;5000902;28;20232;-78
2021/07/08 10:50:05;;;;;;;2.27;2.17;;;;;;;21.69;82.56;98322.50;5003496;28;20209;-78
2021/07/08 10:52:47;;;;;;;2.33;2.23;;;;;;;21.51;81.77;98334.91;4999390;28;20224;-77
2021/07/08 10:55:36;;;;;;;2.20;2.10;;;;;;;21.46;80.36;98331.25;4996354;28;20229;-78
2021/07/08 10:58:05;;;;;;;2.43;2.20;;;;;;;21.21;83.39;98348.34;5001642;28;20223;-80
2021/07/08 11:00:44;;;;;;;2.43;2.30;;;;;;;21.07;82.47;98351.19;5002735;28;20329;-80
2021/07/08 11:03:36;;;;;;;2.20;2.10;;;;;;;20.87;83.43;98351.41;5003542;28;20207;-77
2021/07/08 11:06:20;;;;;;;2.40;2.30;;;;;;;20.49;81.92;98339.69;4999799;28;20228;-79
2021/07/08 11:09:04;;;;;;;3.33;2.90;;;;;;;20.15;86.14;98325.66;5000709;28;20197;-78
2021/07/08 11:12:04;;;;;;;9.93;6.90;;;;;;;20.30;86.98;98311.88;4999046;28;20684;-76
2021/07/08 11:14:41;;;;;;;2.40;2.30;;;;;;;20.62;84.74;98294.81;4993411;28;20668;-79
2021/07/08 11:17:17;;;;;;;2.60;2.50;;;;;;;20.25;87.91;98280.25;4997129;28;20223;-76
2021/07/08 11:19:47;;;;;;;2.83;2.73;;;;;;;20.03;86.18;98263.66;4998956;28;20299;-80
2021/07/08 11:22:35;;;;;;;2.73;2.53;;;;;;;20.07;87.31;98239.84;4998467;28;20198;-76
2021/07/08 11:25:08;;;;;;;3.20;3.00;;;;;;;20.04;87.05;98216.09;4997591;28;20205;-77
2021/07/08 11:27:39;;;;;;;3.40;2.50;;;;;;;20.17;87.15;98213.25;4997682;28;20566;-76
2021/07/08 11:30:31;;;;;;;2.83;2.60;;;;;;;20.27;87.86;98215.47;5000482;28;20212;-77
2021/07/08 11:33:05;;;;;;;2.97;2.87;;;;;;;20.51;86.12;98211.06;5000975;28;20720;-78
2021/07/08 11:35:36;;;;;;;3.50;2.70;;;;;;;20.70;84.69;98227.25;4999241;28;20484;-75
2021/07/08 11:38:08;;;;;;;2.67;2.47;;;;;;;20.74;83.46;98246.44;4999355;28;20219;-76
2021/07/08 11:40:38;;;;;;;4.13;3.73;;;;;;;20.73;84.58;98267.19;4996363;28;20201;-72
2021/07/08 11:43:29;;;;;;;3.37;3.10;;;;;;;20.63;84.82;98299.16;4998463;28;20661;-72